createdAt,value
2022-10-28T00:00:37.204Z,41.08
2022-10-28T00:01:43.802Z,39.70
2022-10-28T00:03:01.334Z,43.42
2022-10-28T00:04:20.406Z,41.17
2022-10-28T00:05:27.033Z,41.78
2022-10-28T00:06:36.523Z,42.85
2022-10-28T00:07:47.120Z,40.90
2022-10-28T00:08:49.740Z,40.20
2022-10-28T00:10:38.556Z,41.80
2022-10-28T00:16:24.254Z,38.22
2022-10-28T00:17:35.904Z,37.88
2022-10-28T00:18:42.126Z,37.67
2022-10-28T00:20:18.049Z,38.42
2022-10-28T00:21:28.382Z,35.22
2022-10-28T00:22:40.254Z,33.50
2022-10-28T00:23:57.455Z,37.42
2022-10-28T00:25:07.489Z,38.30
2022-10-28T00:26:26.776Z,36.90
2022-10-28T00:27:48.955Z,35.90
2022-10-28T00:29:19.622Z,33.63
2022-10-28T00:31:43.260Z,33.70
2022-10-28T00:32:52.711Z,34.00
2022-10-28T00:34:01.407Z,35.72
2022-10-28T00:35:14.187Z,34.30
2022-10-28T00:36:20.083Z,33.33
2022-10-28T00:37:35.407Z,38.20
2022-10-28T00:38:53.453Z,33.42
2022-10-28T00:40:09.753Z,34.63
2022-10-28T00:41:31.780Z,33.45
2022-10-28T00:42:36.998Z,35.40
2022-10-28T00:43:44.741Z,33.00
2022-10-28T00:45:02.068Z,32.45
2022-10-28T00:46:14.444Z,32.13
2022-10-28T00:47:42.002Z,30.52
2022-10-28T00:48:52.398Z,30.50
2022-10-28T00:50:02.539Z,30.27
2022-10-28T00:51:12.537Z,31.58
2022-10-28T00:52:24.850Z,28.33
2022-10-28T00:53:32.436Z,30.92
2022-10-28T00:54:35.507Z,30.75
2022-10-28T00:55:39.108Z,30.33
2022-10-28T00:56:48.538Z,32.53
2022-10-28T00:57:53.517Z,31.55
2022-10-28T00:59:13.887Z,31.70
2022-10-28T01:00:23.902Z,31.23
2022-10-28T01:01:33.302Z,31.05
2022-10-28T01:02:58.165Z,32.67
2022-10-28T01:04:15.133Z,33.70
2022-10-28T01:05:30.382Z,31.83
2022-10-28T01:06:48.589Z,30.83
2022-10-28T01:07:56.774Z,32.42
2022-10-28T01:10:36.122Z,31.88
2022-10-28T01:12:16.074Z,31.30
2022-10-28T01:13:59.192Z,30.40
2022-10-28T01:15:28.509Z,30.63
2022-10-28T01:17:08.111Z,31.98
2022-10-28T01:19:02.199Z,31.27
2022-10-28T01:20:29.746Z,31.15
2022-10-28T01:22:18.402Z,31.48
2022-10-28T01:23:59.365Z,30.40
2022-10-28T01:25:33.763Z,29.67
2022-10-28T01:28:48.652Z,28.33
2022-10-28T01:30:12.361Z,30.15
2022-10-28T01:33:09.708Z,31.52
2022-10-28T01:34:19.915Z,29.55
2022-10-28T01:35:28.298Z,28.02
2022-10-28T01:36:46.234Z,29.48
2022-10-28T01:38:26.517Z,28.05
2022-10-28T01:40:00.787Z,26.48
2022-10-28T01:42:05.368Z,28.17
2022-10-28T01:43:35.735Z,28.30
2022-10-28T01:45:13.938Z,27.05
2022-10-28T01:46:58.044Z,27.00
2022-10-28T01:48:27.595Z,30.08
2022-10-28T01:51:28.288Z,28.83
2022-10-28T01:52:48.430Z,29.27
2022-10-28T01:53:58.466Z,30.02
2022-10-28T01:55:42.536Z,28.63
2022-10-28T01:56:51.515Z,30.60
2022-10-28T01:57:57.992Z,28.35
2022-10-28T01:59:07.641Z,28.45
2022-10-28T02:00:20.140Z,30.13
2022-10-28T02:01:34.287Z,27.42
2022-10-28T02:02:43.541Z,27.70
2022-10-28T02:03:52.668Z,27.80
2022-10-28T02:05:45.766Z,26.92
2022-10-28T02:06:59.508Z,24.58
2022-10-28T02:08:40.378Z,26.58
2022-10-28T02:10:06.790Z,25.73
2022-10-28T02:11:50.093Z,25.50
2022-10-28T02:13:09.539Z,24.05
2022-10-28T02:14:41.699Z,25.20
2022-10-28T02:16:15.514Z,25.52
2022-10-28T02:17:28.702Z,24.25
2022-10-28T02:18:45.935Z,25.67
2022-10-28T02:20:02.349Z,25.00
2022-10-28T02:21:15.161Z,26.60
2022-10-28T02:22:50.250Z,25.67
2022-10-28T02:24:35.335Z,25.67
2022-10-28T02:25:58.365Z,23.92
2022-10-28T02:27:56.396Z,25.60
2022-10-28T02:31:24.478Z,24.95
2022-10-28T02:32:39.145Z,25.08
2022-10-28T02:33:45.170Z,24.45
2022-10-28T02:34:59.331Z,24.63
2022-10-28T02:36:12.845Z,25.20
2022-10-28T02:37:32.197Z,25.13
2022-10-28T02:39:03.910Z,23.95
2022-10-28T02:40:31.112Z,23.77
2022-10-28T02:41:46.315Z,24.17
2022-10-28T02:43:16.786Z,25.25
2022-10-28T02:44:58.479Z,23.30
2022-10-28T02:46:08.774Z,23.23
2022-10-28T02:47:37.282Z,23.63
2022-10-28T02:58:10.485Z,21.63
2022-10-28T03:01:01.920Z,21.80
2022-10-28T03:02:44.329Z,23.00
2022-10-28T03:04:17.389Z,23.23
2022-10-28T03:05:38.055Z,23.00
2022-10-28T03:07:36.421Z,23.10
2022-10-28T03:10:42.052Z,22.83
2022-10-28T03:12:12.658Z,23.23
2022-10-28T03:16:13.256Z,22.50
2022-10-28T03:18:37.871Z,23.13
2022-10-28T03:19:51.915Z,22.83
2022-10-28T03:20:58.882Z,22.75
2022-10-28T03:22:02.120Z,23.17
2022-10-28T03:23:06.044Z,22.88
2022-10-28T03:24:09.961Z,20.88
2022-10-28T03:25:20.054Z,20.95
2022-10-28T03:26:25.795Z,21.38
2022-10-28T03:27:42.795Z,21.77
2022-10-28T03:28:47.516Z,20.70
2022-10-28T03:29:53.411Z,21.27
2022-10-28T03:32:28.968Z,21.10
2022-10-28T03:33:37.818Z,19.98
2022-10-28T03:34:40.882Z,19.55
2022-10-28T03:37:17.403Z,20.15
2022-10-28T03:40:09.160Z,20.17
2022-10-28T03:41:13.331Z,19.52
2022-10-28T03:42:17.440Z,20.08
2022-10-28T03:43:27.009Z,19.10
2022-10-28T03:44:28.940Z,18.40
2022-10-28T03:45:31.982Z,18.90
2022-10-28T03:46:52.095Z,19.85
2022-10-28T03:48:14.311Z,17.48
2022-10-28T03:49:27.965Z,18.90
2022-10-28T03:50:33.635Z,19.27
2022-10-28T03:51:35.814Z,22.05
2022-10-28T03:52:39.088Z,21.17
2022-10-28T03:53:47.040Z,19.40
2022-10-28T03:54:51.649Z,19.67
2022-10-28T03:56:11.499Z,20.42
2022-10-28T03:57:13.964Z,17.48
2022-10-28T03:58:17.083Z,19.98
2022-10-28T03:59:20.378Z,20.65
2022-10-28T04:00:24.622Z,20.10
2022-10-28T04:01:26.762Z,19.55
2022-10-28T04:02:29.630Z,20.20
2022-10-28T04:03:32.187Z,19.33
2022-10-28T04:04:35.035Z,20.45
2022-10-28T04:05:37.036Z,19.73
2022-10-28T04:06:43.628Z,20.23
2022-10-28T04:07:48.549Z,20.42
2022-10-28T04:09:12.276Z,21.55
2022-10-28T04:10:15.600Z,19.90
2022-10-28T04:11:19.468Z,20.70
2022-10-28T04:12:24.952Z,21.08
2022-10-28T04:13:27.221Z,20.67
2022-10-28T04:14:31.527Z,21.65
2022-10-28T04:15:34.151Z,21.58
2022-10-28T04:16:36.400Z,21.83
2022-10-28T04:17:44.480Z,20.85
2022-10-28T04:18:54.465Z,22.33
2022-10-28T04:20:15.637Z,22.27
2022-10-28T04:22:45.247Z,21.70
2022-10-28T04:23:49.643Z,22.20
2022-10-28T04:24:57.492Z,21.80
2022-10-28T04:26:01.683Z,23.90
2022-10-28T04:27:15.302Z,20.20
2022-10-28T04:28:22.370Z,19.83
2022-10-28T04:29:33.346Z,22.08
2022-10-28T04:30:52.309Z,20.83
2022-10-28T04:32:21.310Z,19.95
2022-10-28T04:33:33.827Z,19.55
2022-10-28T04:34:38.416Z,20.45
2022-10-28T04:35:45.979Z,20.88
2022-10-28T04:36:49.128Z,20.42
2022-10-28T04:37:55.807Z,21.00
2022-10-28T04:38:58.283Z,21.30
2022-10-28T04:40:05.857Z,21.33
2022-10-28T04:41:13.611Z,20.98
2022-10-28T04:42:19.796Z,21.25
2022-10-28T04:43:28.633Z,22.45
2022-10-28T04:44:41.143Z,23.77
2022-10-28T04:45:59.616Z,22.42
2022-10-28T04:47:17.583Z,22.73
2022-10-28T04:48:22.463Z,23.88
2022-10-28T04:49:34.218Z,22.58
2022-10-28T04:50:51.076Z,24.98
2022-10-28T04:51:55.375Z,23.40
2022-10-28T04:52:57.497Z,23.92
2022-10-28T04:54:09.423Z,23.13
2022-10-28T04:55:15.619Z,25.00
2022-10-28T04:56:33.379Z,26.73
2022-10-28T04:57:40.682Z,24.98
2022-10-28T04:58:43.092Z,24.70
2022-10-28T04:59:48.719Z,25.15
2022-10-28T05:00:57.208Z,23.83
2022-10-28T05:02:01.845Z,24.17
2022-10-28T05:03:14.890Z,24.38
2022-10-28T05:04:17.869Z,22.88
2022-10-28T05:05:28.318Z,23.48
2022-10-28T05:06:30.290Z,24.67
2022-10-28T05:07:33.541Z,24.52
2022-10-28T05:08:35.429Z,26.02
2022-10-28T05:10:02.228Z,24.92
2022-10-28T05:11:12.192Z,24.27
2022-10-28T05:12:21.018Z,23.80
2022-10-28T05:13:23.020Z,24.52
2022-10-28T05:14:26.922Z,25.17
2022-10-28T05:15:31.430Z,26.52
2022-10-28T05:16:33.573Z,25.92
2022-10-28T05:17:35.579Z,24.10
2022-10-28T05:18:38.194Z,26.27
2022-10-28T05:19:40.103Z,24.27
2022-10-28T05:20:42.322Z,24.50
2022-10-28T05:21:44.044Z,24.10
2022-10-28T05:22:51.291Z,25.92
2022-10-28T05:23:53.742Z,25.52
2022-10-28T05:24:56.315Z,27.40
2022-10-28T05:25:58.326Z,26.55
2022-10-28T05:27:02.181Z,27.17
2022-10-28T05:28:05.104Z,25.83
2022-10-28T05:29:07.037Z,26.35
2022-10-28T05:30:31.104Z,26.10
2022-10-28T05:31:33.316Z,24.38
2022-10-28T05:32:36.706Z,24.25
2022-10-28T05:33:38.649Z,24.90
2022-10-28T05:34:43.055Z,25.35
2022-10-28T05:35:45.538Z,24.20
2022-10-28T05:36:47.615Z,24.33
2022-10-28T05:37:49.807Z,24.83
2022-10-28T05:38:55.523Z,26.58
2022-10-28T05:39:57.616Z,24.45
2022-10-28T05:41:00.938Z,23.70
2022-10-28T05:42:03.269Z,25.90
2022-10-28T05:43:05.702Z,22.98
2022-10-28T05:44:08.473Z,22.35
2022-10-28T05:45:12.814Z,21.88
2022-10-28T05:46:16.241Z,21.73
2022-10-28T05:47:20.471Z,22.45
2022-10-28T05:48:22.704Z,20.27
2022-10-28T05:49:26.103Z,20.63
2022-10-28T05:50:28.068Z,19.85
2022-10-28T05:51:31.490Z,19.73
2022-10-28T05:52:34.203Z,19.88
2022-10-28T05:53:36.547Z,20.05
2022-10-28T05:54:38.525Z,18.90
2022-10-28T05:55:46.793Z,18.83
2022-10-28T05:56:50.134Z,19.75
2022-10-28T05:57:55.285Z,19.63
2022-10-28T05:58:58.813Z,18.75
2022-10-28T06:00:02.565Z,19.38
2022-10-28T06:01:09.618Z,19.58
2022-10-28T06:02:19.668Z,20.60
2022-10-28T06:03:21.754Z,18.88
2022-10-28T06:04:23.718Z,19.77
2022-10-28T06:05:27.117Z,19.48
2022-10-28T06:06:29.937Z,19.70
2022-10-28T06:07:32.723Z,20.15
2022-10-28T06:08:34.901Z,18.88
2022-10-28T06:09:36.920Z,18.58
2022-10-28T06:10:40.163Z,18.55
2022-10-28T06:11:42.603Z,17.95
2022-10-28T06:12:45.443Z,18.75
2022-10-28T06:13:50.221Z,18.40
2022-10-28T06:14:52.060Z,18.38
2022-10-28T06:15:55.572Z,19.17
2022-10-28T06:16:57.517Z,20.55
2022-10-28T06:18:01.203Z,20.33
2022-10-28T06:19:03.247Z,19.17
2022-10-28T06:20:05.520Z,19.35
2022-10-28T06:21:07.527Z,19.63
2022-10-28T06:22:10.231Z,18.27
2022-10-28T06:23:12.835Z,19.05
2022-10-28T06:24:14.765Z,18.42
2022-10-28T06:25:17.860Z,19.40
2022-10-28T06:26:19.833Z,17.95
2022-10-28T06:27:21.700Z,18.60
2022-10-28T06:28:23.562Z,18.33
2022-10-28T06:29:31.213Z,18.42
2022-10-28T06:30:34.479Z,19.65
2022-10-28T06:31:41.050Z,19.13
2022-10-28T06:32:45.419Z,19.45
2022-10-28T06:33:47.454Z,20.35
2022-10-28T06:34:50.257Z,17.98
2022-10-28T06:35:59.121Z,17.65
2022-10-28T06:37:01.497Z,18.67
2022-10-28T06:38:09.602Z,16.65
2022-10-28T06:39:11.485Z,19.75
2022-10-28T06:40:15.429Z,20.63
2022-10-28T06:41:18.020Z,20.30
2022-10-28T06:42:20.337Z,17.40
2022-10-28T06:43:22.321Z,20.75
2022-10-28T06:44:24.417Z,16.33
2022-10-28T06:45:30.013Z,16.88
2022-10-28T06:46:33.381Z,17.42
2022-10-28T06:47:39.043Z,17.13
2022-10-28T06:48:43.739Z,16.77
2022-10-28T06:49:45.664Z,16.42
2022-10-28T06:50:47.458Z,17.00
2022-10-28T06:51:50.118Z,17.10
2022-10-28T06:52:51.991Z,15.63
2022-10-28T06:53:54.128Z,16.58
2022-10-28T06:54:56.019Z,16.33
2022-10-28T06:55:58.954Z,15.35
2022-10-28T06:57:01.073Z,17.23
2022-10-28T06:58:03.656Z,15.77
2022-10-28T06:59:05.714Z,16.35
2022-10-28T07:00:08.295Z,16.00
2022-10-28T07:01:10.559Z,15.80
2022-10-28T07:02:12.707Z,19.52
2022-10-28T07:03:14.746Z,15.43
2022-10-28T07:04:16.680Z,14.63
2022-10-28T07:05:18.797Z,14.63
2022-10-28T07:06:20.619Z,13.63
2022-10-28T07:07:22.433Z,12.43
2022-10-28T07:08:24.575Z,13.23
2022-10-28T07:09:26.926Z,13.55
2022-10-28T07:10:28.871Z,13.73
2022-10-28T07:11:30.686Z,12.98
2022-10-28T07:12:32.855Z,13.02
2022-10-28T07:13:34.824Z,13.48
2022-10-28T07:14:36.732Z,14.07
2022-10-28T07:15:38.720Z,14.45
2022-10-28T07:16:42.410Z,13.85
2022-10-28T07:17:44.264Z,14.82
2022-10-28T07:18:46.016Z,13.60
2022-10-28T07:19:47.750Z,13.60
2022-10-28T07:20:50.227Z,13.73
2022-10-28T07:21:52.389Z,15.18
2022-10-28T07:22:58.950Z,12.85
2022-10-28T07:24:00.936Z,11.95
2022-10-28T07:25:02.863Z,11.98
2022-10-28T07:26:05.023Z,11.75
2022-10-28T07:27:08.318Z,11.18
2022-10-28T07:31:47.989Z,12.20
2022-10-28T07:33:08.529Z,11.35
2022-10-28T07:34:31.520Z,11.63
2022-10-28T07:35:38.828Z,11.60
2022-10-28T07:38:26.848Z,11.05
2022-10-28T07:39:41.835Z,10.32
2022-10-28T07:40:51.827Z,10.23
2022-10-28T07:44:32.956Z,9.52
2022-10-28T07:47:30.983Z,9.77
2022-10-28T07:53:45.879Z,9.85
2022-10-28T07:54:48.315Z,10.40
2022-10-28T07:56:00.355Z,10.18
2022-10-28T07:57:05.543Z,10.20
2022-10-28T07:58:12.591Z,9.68
2022-10-28T07:59:26.648Z,9.98
2022-10-28T08:00:38.949Z,9.70
2022-10-28T08:01:48.764Z,10.73
2022-10-28T08:03:05.697Z,11.17
2022-10-28T08:04:23.597Z,11.55
2022-10-28T08:05:32.029Z,11.43
2022-10-28T08:08:28.598Z,12.27
2022-10-28T08:09:42.439Z,12.63
2022-10-28T08:11:18.581Z,12.38
2022-10-28T08:12:23.513Z,12.75
2022-10-28T08:13:35.753Z,13.13
2022-10-28T08:14:40.710Z,13.38
2022-10-28T08:15:45.710Z,14.07
2022-10-28T08:16:49.646Z,14.00
2022-10-28T08:18:02.613Z,13.52
2022-10-28T08:19:15.415Z,14.60
2022-10-28T08:20:22.967Z,14.88
2022-10-28T08:21:30.205Z,15.80
2022-10-28T08:22:50.291Z,16.63
2022-10-28T08:24:05.668Z,17.35
2022-10-28T08:25:14.771Z,17.60
2022-10-28T08:26:27.846Z,17.52
2022-10-28T08:27:52.907Z,18.58
2022-10-28T08:29:15.005Z,18.88
2022-10-28T08:57:31.821Z,16.83
2022-10-28T09:13:20.615Z,13.90
2022-10-28T09:14:26.716Z,13.82
2022-10-28T09:15:43.636Z,12.88
2022-10-28T09:24:34.558Z,13.60
2022-10-28T09:26:17.779Z,12.20
2022-10-28T09:37:27.039Z,11.73
2022-10-28T09:40:40.898Z,11.38
2022-10-28T09:43:48.805Z,12.18
2022-10-28T09:45:24.268Z,11.02
2022-10-28T09:47:20.105Z,11.50
2022-10-28T09:51:03.068Z,13.55
2022-10-28T09:52:08.859Z,12.07
2022-10-28T09:55:43.927Z,12.70
2022-10-28T09:57:12.631Z,12.30
2022-10-28T09:58:26.102Z,11.95
2022-10-28T09:59:28.987Z,12.80
2022-10-28T10:26:08.068Z,10.98
2022-10-28T10:39:30.366Z,10.10
2022-10-28T10:44:23.586Z,11.70
2022-10-28T10:45:27.726Z,13.07
2022-10-28T10:46:44.294Z,12.40
2022-10-28T10:48:12.756Z,13.05
2022-10-28T11:04:30.928Z,11.98
2022-10-28T11:05:45.463Z,11.82
2022-10-28T11:07:01.583Z,12.15
2022-10-28T11:08:37.887Z,11.15
2022-10-28T11:42:20.716Z,11.00
2022-10-28T11:43:50.919Z,12.07
2022-10-28T12:01:02.910Z,10.52
2022-10-28T12:02:25.373Z,11.57
2022-10-28T12:03:56.572Z,12.13
2022-10-28T12:05:46.419Z,19.45
2022-10-28T12:07:17.928Z,24.75
2022-10-28T12:08:35.929Z,27.83
2022-10-28T12:09:41.060Z,27.55
2022-10-28T12:11:21.832Z,23.80
2022-10-28T12:12:57.907Z,26.42
2022-10-28T12:14:41.865Z,23.52
2022-10-28T12:20:51.810Z,12.13
2022-10-28T12:24:49.657Z,10.80
2022-10-28T12:26:10.039Z,11.63
2022-10-28T12:27:36.193Z,11.70
2022-10-28T12:28:55.558Z,12.27
2022-10-28T12:30:08.371Z,11.65
2022-10-28T12:31:49.559Z,13.18
2022-10-28T12:33:07.050Z,11.15
2022-10-28T12:34:21.911Z,12.23
2022-10-28T12:35:48.626Z,12.63
2022-10-28T12:37:01.050Z,12.48
2022-10-28T12:38:31.832Z,11.10
2022-10-28T12:39:46.530Z,12.55
2022-10-28T12:40:51.937Z,11.98
2022-10-28T12:42:12.966Z,11.88
2022-10-28T12:46:38.429Z,14.93
2022-10-28T12:47:46.098Z,15.27
2022-10-28T12:48:57.093Z,16.00
2022-10-28T12:50:32.856Z,16.45
2022-10-28T12:51:59.816Z,15.75
2022-10-28T12:53:04.845Z,15.63
2022-10-28T12:54:28.584Z,14.43
2022-10-28T12:56:02.128Z,13.15
2022-10-28T12:57:35.338Z,13.32
2022-10-28T13:00:17.664Z,12.52
2022-10-28T13:01:28.652Z,12.70
2022-10-28T13:02:40.190Z,11.48
2022-10-28T13:03:43.879Z,11.70
2022-10-28T13:04:46.508Z,11.70
2022-10-28T13:05:56.275Z,12.07
2022-10-28T13:07:25.089Z,12.63
2022-10-28T13:10:33.558Z,13.32
2022-10-28T13:12:02.936Z,13.30
2022-10-28T13:13:24.524Z,12.38
2022-10-28T13:14:53.855Z,13.48
2022-10-28T13:16:15.139Z,13.23
2022-10-28T13:17:52.030Z,13.15
2022-10-28T13:19:18.476Z,13.07
2022-10-28T13:20:41.454Z,13.90
2022-10-28T13:22:21.699Z,13.60
2022-10-28T13:24:07.588Z,12.70
2022-10-28T13:25:28.108Z,12.77
2022-10-28T13:26:36.456Z,12.25
2022-10-28T13:27:40.447Z,12.65
2022-10-28T13:30:33.476Z,11.95
2022-10-28T13:31:50.076Z,11.80
2022-10-28T13:33:09.294Z,12.68
2022-10-28T13:34:23.857Z,12.32
2022-10-28T14:30:25.787Z,12.48
2022-10-28T14:31:41.947Z,12.52
2022-10-28T14:33:07.165Z,12.32
2022-10-28T14:34:19.208Z,11.98
2022-10-28T14:35:44.746Z,11.82
2022-10-28T14:36:58.444Z,12.20
2022-10-28T14:38:30.034Z,11.25
2022-10-28T14:40:53.490Z,11.48
2022-10-28T14:42:27.513Z,12.15
2022-10-28T14:43:43.640Z,12.07
2022-10-28T14:45:07.900Z,12.43
2022-10-28T14:46:17.123Z,11.32
2022-10-28T14:48:04.860Z,11.35
2022-10-28T14:49:42.010Z,11.75
2022-10-28T14:50:50.890Z,11.52
2022-10-28T14:52:23.609Z,11.63
2022-10-28T14:53:45.014Z,11.30
2022-10-28T14:54:55.665Z,11.13
2022-10-28T14:56:10.176Z,12.38
2022-10-28T14:57:17.565Z,10.95
2022-10-28T14:58:31.465Z,10.40
2022-10-28T14:59:44.284Z,10.48
2022-10-28T15:00:56.516Z,10.20
2022-10-28T15:02:22.625Z,10.50
2022-10-28T15:03:26.478Z,10.45
2022-10-28T15:04:30.166Z,10.75
2022-10-28T15:05:50.615Z,10.55
2022-10-28T15:06:54.894Z,10.48
2022-10-28T15:08:03.664Z,9.73
2022-10-28T15:09:21.713Z,9.68
2022-10-28T15:10:35.147Z,8.98
2022-10-28T15:11:41.433Z,9.80
2022-10-28T15:12:55.889Z,9.85
2022-10-28T15:14:38.147Z,9.35
2022-10-28T15:16:37.249Z,9.10
2022-10-28T15:17:41.349Z,8.95
2022-10-28T15:18:48.687Z,9.40
2022-10-28T15:19:56.164Z,9.68
2022-10-28T15:21:11.882Z,9.77
2022-10-28T15:22:20.327Z,10.35
2022-10-28T15:23:28.714Z,9.30
2022-10-28T15:24:30.716Z,9.68
2022-10-28T15:25:37.437Z,9.93
2022-10-28T15:26:39.434Z,9.52
2022-10-28T15:27:43.188Z,9.10
2022-10-28T15:28:46.891Z,9.27
2022-10-28T15:29:50.873Z,10.05
2022-10-28T15:30:56.439Z,10.32
2022-10-28T15:32:07.625Z,10.13
2022-10-28T15:34:29.601Z,9.20
2022-10-28T15:35:33.046Z,9.25
2022-10-28T15:36:36.885Z,10.57
2022-10-28T15:37:39.960Z,10.10
2022-10-28T15:38:54.113Z,10.02
2022-10-28T15:40:21.020Z,10.32
2022-10-28T15:41:27.938Z,10.13
2022-10-28T15:42:39.644Z,10.40
2022-10-28T15:44:08.116Z,12.23
2022-10-28T15:45:42.564Z,11.68
2022-10-28T15:46:51.019Z,11.55
2022-10-28T15:47:58.474Z,12.48
2022-10-28T15:49:03.148Z,12.00
2022-10-28T15:50:26.432Z,11.80
2022-10-28T15:51:40.119Z,11.80
2022-10-28T15:52:57.911Z,12.43
2022-10-28T15:54:21.692Z,11.95
2022-10-28T15:56:09.662Z,11.23
2022-10-28T15:57:26.029Z,11.93
2022-10-28T15:58:35.854Z,11.73
2022-10-28T15:59:44.991Z,13.05
2022-10-28T16:00:57.647Z,12.82
2022-10-28T16:02:12.648Z,12.27
2022-10-28T16:03:36.003Z,12.70
2022-10-28T16:04:49.144Z,13.48
2022-10-28T16:05:53.398Z,13.02
2022-10-28T16:06:58.522Z,12.93
2022-10-28T16:08:05.949Z,13.27
2022-10-28T16:09:17.737Z,13.65
2022-10-28T16:10:21.788Z,14.15
2022-10-28T16:11:31.822Z,14.88
2022-10-28T16:12:33.810Z,15.52
2022-10-28T16:13:39.836Z,14.75
2022-10-28T16:14:52.928Z,15.75
2022-10-28T16:16:03.150Z,14.68
2022-10-28T16:17:11.341Z,15.13
2022-10-28T16:18:14.015Z,15.30
2022-10-28T16:19:28.865Z,15.38
2022-10-28T16:20:31.074Z,16.23
2022-10-28T16:21:42.752Z,16.42
2022-10-28T16:22:49.736Z,15.88
2022-10-28T16:24:01.563Z,16.50
2022-10-28T16:25:20.984Z,16.80
2022-10-28T16:26:24.667Z,16.50
2022-10-28T16:27:33.094Z,16.42
2022-10-28T16:28:39.083Z,15.98
2022-10-28T16:29:43.717Z,16.17
2022-10-28T16:30:57.941Z,15.48
2022-10-28T16:32:00.985Z,16.50
2022-10-28T16:33:03.171Z,15.68
2022-10-28T16:34:17.887Z,15.90
2022-10-28T16:35:24.491Z,16.65
2022-10-28T16:36:28.650Z,16.85
2022-10-28T16:37:37.452Z,17.75
2022-10-28T16:38:43.003Z,16.23
2022-10-28T16:39:46.165Z,16.13
2022-10-28T16:40:52.471Z,15.95
2022-10-28T16:41:57.118Z,14.90
2022-10-28T16:43:01.901Z,15.77
2022-10-28T16:44:04.424Z,15.35
2022-10-28T16:45:10.012Z,15.82
2022-10-28T16:46:20.858Z,15.25
2022-10-28T16:47:27.479Z,15.18
2022-10-28T16:48:34.138Z,15.82
2022-10-28T16:49:45.224Z,14.90
2022-10-28T16:51:17.392Z,15.13
2022-10-28T16:52:30.276Z,14.45
2022-10-28T16:53:50.269Z,15.55
2022-10-28T16:55:03.250Z,15.38
2022-10-28T16:56:11.122Z,14.40
2022-10-28T16:57:17.041Z,15.07
2022-10-28T16:58:24.648Z,15.48
2022-10-28T16:59:32.549Z,14.98
2022-10-28T17:00:36.522Z,15.27
2022-10-28T17:01:42.253Z,16.67
2022-10-28T17:02:46.383Z,16.35
2022-10-28T17:03:55.341Z,16.08
2022-10-28T17:04:58.696Z,16.08
2022-10-28T17:06:07.856Z,15.70
2022-10-28T17:07:14.970Z,14.90
2022-10-28T17:08:48.978Z,15.18
2022-10-28T17:09:48.555Z,16.35
2022-10-28T17:10:50.914Z,17.23
2022-10-28T17:11:53.508Z,16.30
2022-10-28T17:12:56.170Z,16.33
2022-10-28T17:16:05.527Z,15.13
2022-10-28T17:17:07.764Z,15.32
2022-10-28T17:18:12.845Z,14.50
2022-10-28T17:19:14.929Z,15.85
2022-10-28T17:20:17.813Z,17.27
2022-10-28T17:21:20.999Z,16.25
2022-10-28T17:22:24.142Z,15.80
2022-10-28T17:23:28.705Z,15.25
2022-10-28T17:24:34.349Z,16.48
2022-10-28T17:26:52.993Z,15.82
2022-10-28T17:27:58.819Z,16.10
2022-10-28T17:30:28.950Z,15.90
2022-10-28T17:31:31.465Z,16.05
2022-10-28T17:32:46.060Z,15.98
2022-10-28T17:33:52.808Z,15.60
2022-10-28T17:34:54.723Z,16.40
2022-10-28T17:36:00.722Z,16.60
2022-10-28T17:37:02.910Z,17.08
2022-10-28T17:38:06.394Z,17.20
2022-10-28T17:39:21.944Z,16.42
2022-10-28T17:40:36.183Z,16.85
2022-10-28T17:41:42.513Z,17.60
2022-10-28T17:42:46.259Z,15.65
2022-10-28T17:43:54.389Z,16.88
2022-10-28T17:44:56.393Z,17.10
2022-10-28T17:46:07.901Z,18.23
2022-10-28T17:47:12.347Z,16.65
2022-10-28T17:48:15.285Z,17.40
2022-10-28T17:49:18.108Z,18.15
2022-10-28T17:50:21.895Z,18.10
2022-10-28T17:51:25.207Z,19.52
2022-10-28T17:52:38.333Z,18.65
2022-10-28T17:53:42.189Z,19.17
2022-10-28T17:54:46.532Z,18.52
2022-10-28T17:56:08.447Z,18.23
2022-10-28T17:57:12.456Z,18.20
2022-10-28T17:58:15.380Z,18.27
2022-10-28T17:59:22.908Z,17.88
2022-10-28T18:00:26.644Z,20.13
2022-10-28T18:01:32.477Z,19.90
2022-10-28T18:02:42.727Z,18.48
2022-10-28T18:03:50.976Z,19.10
2022-10-28T18:04:53.800Z,18.60
2022-10-28T18:05:57.023Z,18.10
2022-10-28T18:07:05.974Z,19.75
2022-10-28T18:08:09.403Z,20.02
2022-10-28T18:09:13.092Z,19.60
2022-10-28T18:10:17.093Z,19.45
2022-10-28T18:11:22.655Z,19.67
2022-10-28T18:12:24.933Z,20.02
2022-10-28T18:13:32.545Z,21.00
2022-10-28T18:14:34.761Z,19.75
2022-10-28T18:15:37.668Z,20.00
2022-10-28T18:16:39.685Z,19.02
2022-10-28T18:17:41.609Z,21.13
2022-10-28T18:18:43.764Z,20.52
2022-10-28T18:19:46.123Z,20.77
2022-10-28T18:20:55.691Z,20.67
2022-10-28T18:21:57.854Z,21.38
2022-10-28T18:23:00.606Z,21.25
2022-10-28T18:24:05.645Z,21.98
2022-10-28T18:25:07.907Z,20.58
2022-10-28T18:26:14.492Z,21.95
2022-10-28T18:27:16.379Z,21.38
2022-10-28T18:28:22.962Z,21.52
2022-10-28T18:29:25.545Z,20.75
2022-10-28T18:30:27.385Z,21.35
2022-10-28T18:31:35.090Z,21.13
2022-10-28T18:32:37.472Z,21.33
2022-10-28T18:33:40.509Z,21.38
2022-10-28T18:34:44.374Z,21.80
2022-10-28T18:36:50.502Z,21.60
2022-10-28T18:37:54.140Z,21.40
2022-10-28T18:38:58.314Z,21.25
2022-10-28T18:40:00.737Z,20.55
2022-10-28T18:41:03.148Z,22.20
2022-10-28T18:42:05.999Z,22.08
2022-10-28T18:43:08.438Z,22.40
2022-10-28T18:44:17.694Z,22.10
2022-10-28T18:45:20.397Z,21.65
2022-10-28T18:46:23.643Z,22.88
2022-10-28T18:47:26.742Z,22.92
2022-10-28T18:48:31.651Z,21.88
2022-10-28T18:49:33.696Z,21.95
2022-10-28T18:50:41.839Z,23.48
2022-10-28T18:51:45.182Z,22.02
2022-10-28T18:52:48.321Z,21.98
2022-10-28T18:53:56.330Z,23.33
2022-10-28T18:55:00.833Z,23.63
2022-10-28T18:56:08.234Z,23.65
2022-10-28T18:57:15.302Z,23.20
2022-10-28T18:58:31.969Z,23.13
2022-10-28T18:59:43.260Z,22.70
2022-10-28T19:01:23.500Z,22.80
2022-10-28T19:02:49.076Z,23.98
2022-10-28T19:04:11.475Z,24.20
2022-10-28T19:05:14.734Z,24.20
2022-10-28T19:06:30.683Z,24.63
2022-10-28T19:08:23.524Z,24.35
2022-10-28T19:09:29.294Z,23.88
2022-10-28T19:10:41.315Z,25.08
2022-10-28T19:11:50.935Z,25.77
2022-10-28T19:12:55.113Z,24.17
2022-10-28T19:14:03.978Z,25.55
2022-10-28T19:15:08.123Z,24.73
2022-10-28T19:17:13.455Z,27.42
2022-10-28T19:18:19.217Z,26.15
2022-10-28T19:19:21.554Z,27.17
2022-10-28T19:20:24.401Z,26.88
2022-10-28T19:21:28.606Z,26.63
2022-10-28T19:22:33.326Z,26.90
2022-10-28T19:23:35.658Z,25.20
2022-10-28T19:24:41.851Z,26.55
2022-10-28T19:25:54.397Z,27.23
2022-10-28T19:26:57.010Z,26.05
2022-10-28T19:28:03.107Z,26.08
2022-10-28T19:29:06.631Z,26.00
2022-10-28T19:30:12.447Z,26.45
2022-10-28T19:31:18.801Z,26.60
2022-10-28T19:32:20.695Z,25.45
2022-10-28T19:33:22.710Z,25.88
2022-10-28T19:34:24.700Z,25.00
2022-10-28T19:35:26.539Z,26.20
2022-10-28T19:36:33.263Z,26.70
2022-10-28T19:37:35.308Z,26.83
2022-10-28T19:38:40.024Z,24.67
2022-10-28T19:39:42.077Z,25.33
2022-10-28T19:40:44.498Z,26.25
2022-10-28T19:41:47.154Z,26.75
2022-10-28T19:42:53.575Z,27.40
2022-10-28T19:44:07.557Z,26.80
2022-10-28T19:45:12.745Z,27.13
2022-10-28T19:46:19.580Z,28.45
2022-10-28T19:47:21.860Z,27.52
2022-10-28T19:48:24.156Z,26.65
2022-10-28T19:49:28.721Z,28.45
2022-10-28T19:50:40.650Z,26.17
2022-10-28T19:51:42.779Z,27.25
2022-10-28T19:52:47.676Z,26.70
2022-10-28T19:53:50.705Z,25.63
2022-10-28T19:54:52.697Z,25.77
2022-10-28T19:55:59.858Z,26.10
2022-10-28T19:57:05.358Z,24.60
2022-10-28T19:58:08.900Z,27.95
2022-10-28T19:59:14.591Z,27.00
2022-10-28T20:00:21.756Z,28.48
2022-10-28T20:01:25.991Z,31.85
2022-10-28T20:02:30.028Z,33.75
2022-10-28T20:03:34.599Z,36.40
2022-10-28T20:04:40.356Z,46.13
2022-10-28T20:05:42.964Z,38.15
2022-10-28T20:06:52.754Z,36.17
2022-10-28T20:08:01.079Z,38.28
2022-10-28T20:09:06.790Z,37.70
2022-10-28T20:10:10.689Z,38.90
2022-10-28T20:11:21.537Z,37.22
2022-10-28T20:12:34.286Z,40.28
2022-10-28T20:13:37.646Z,41.78
2022-10-28T20:14:46.634Z,43.97
2022-10-28T20:15:52.299Z,42.25
2022-10-28T20:17:05.526Z,43.45
2022-10-28T20:18:09.637Z,39.85
2022-10-28T20:19:18.484Z,32.10
2022-10-28T20:20:21.215Z,27.60
2022-10-28T20:21:34.328Z,28.58
2022-10-28T20:22:43.748Z,28.83
2022-10-28T20:23:54.195Z,28.27
2022-10-28T20:25:02.187Z,30.00